sensor_id;sensor_type;location;lat;lon;timestamp;pressure;altitude;pressure_sealevel;temperature;humidity
7268;BME280;3675;43.276;27.962;2024-02-21T00:02:46;98781.88;;;4.01;84.56
7268;BME280;3675;43.276;27.962;2024-02-21T00:05:24;98775.03;;;4.05;84.05
7268;BME280;3675;43.276;27.962;2024-02-21T00:07:57;98776.72;;;4.06;84.19
7268;BME280;3675;43.276;27.962;2024-02-21T00:10:29;98779.22;;;4.15;83.67
7268;BME280;3675;43.276;27.962;2024-02-21T00:13:01;98776.66;;;4.12;83.69
7268;BME280;3675;43.276;27.962;2024-02-21T00:15:33;98773.41;;;3.98;84.41
7268;BME280;3675;43.276;27.962;2024-02-21T00:18:09;98769.13;;;3.95;84.61
7268;BME280;3675;43.276;27.962;2024-02-21T00:20:42;98769.09;;;3.98;84.21
7268;BME280;3675;43.276;27.962;2024-02-21T00:23:20;98763.16;;;3.95;84.36
7268;BME280;3675;43.276;27.962;2024-02-21T00:25:56;98764.00;;;3.97;84.06
7268;BME280;3675;43.276;27.962;2024-02-21T00:28:31;98772.47;;;4.03;84.12
7268;BME280;3675;43.276;27.962;2024-02-21T00:31:28;98768.25;;;4.01;83.71
7268;BME280;3675;43.276;27.962;2024-02-21T00:34:11;98769.19;;;3.89;84.35
7268;BME280;3675;43.276;27.962;2024-02-21T00:36:55;98766.53;;;3.98;84.18
7268;BME280;3675;43.276;27.962;2024-02-21T00:39:35;98773.41;;;3.98;84.24
7268;BME280;3675;43.276;27.962;2024-02-21T00:42:24;98772.50;;;4.02;84.17
7268;BME280;3675;43.276;27.962;2024-02-21T00:44:59;98769.91;;;4.03;84.17
7268;BME280;3675;43.276;27.962;2024-02-21T00:47:31;98767.34;;;4.06;83.95
7268;BME280;3675;43.276;27.962;2024-02-21T00:50:06;98768.13;;;4.12;83.68
7268;BME280;3675;43.276;27.962;2024-02-21T00:52:43;98767.25;;;4.19;83.78
7268;BME280;3675;43.276;27.962;2024-02-21T00:55:26;98760.34;;;4.25;83.24
7268;BME280;3675;43.276;27.962;2024-02-21T00:58:10;98758.59;;;4.30;82.85
7268;BME280;3675;43.276;27.962;2024-02-21T01:00:52;98763.66;;;4.35;82.89
7268;BME280;3675;43.276;27.962;2024-02-21T01:03:31;98759.34;;;4.38;82.43
7268;BME280;3675;43.276;27.962;2024-02-21T01:06:09;98755.09;;;4.39;82.36
7268;BME280;3675;43.276;27.962;2024-02-21T01:08:41;98749.97;;;4.39;82.43
7268;BME280;3675;43.276;27.962;2024-02-21T01:11:27;98750.88;;;4.35;82.56
7268;BME280;3675;43.276;27.962;2024-02-21T01:14:07;98744.84;;;4.39;82.17
7268;BME280;3675;43.276;27.962;2024-02-21T01:16:51;98749.09;;;4.41;82.46
7268;BME280;3675;43.276;27.962;2024-02-21T01:19:40;98741.44;;;4.40;82.46
7268;BME280;3675;43.276;27.962;2024-02-21T01:22:42;98742.31;;;4.37;82.78
7268;BME280;3675;43.276;27.962;2024-02-21T01:25:39;98744.19;;;4.17;83.58
7268;BME280;3675;43.276;27.962;2024-02-21T01:28:30;98732.31;;;4.13;83.91
7268;BME280;3675;43.276;27.962;2024-02-21T01:31:06;98736.66;;;4.05;83.83
7268;BME280;3675;43.276;27.962;2024-02-21T01:33:40;98742.53;;;4.12;83.89
7268;BME280;3675;43.276;27.962;2024-02-21T01:36:12;98745.13;;;4.10;84.00
7268;BME280;3675;43.276;27.962;2024-02-21T01:38:46;98741.69;;;4.14;84.06
7268;BME280;3675;43.276;27.962;2024-02-21T01:41:17;98736.53;;;4.19;83.96
7268;BME280;3675;43.276;27.962;2024-02-21T01:43:50;98737.34;;;4.24;83.55
7268;BME280;3675;43.276;27.962;2024-02-21T01:46:26;98741.50;;;4.32;83.50
7268;BME280;3675;43.276;27.962;2024-02-21T01:49:05;98742.47;;;4.22;83.31
7268;BME280;3675;43.276;27.962;2024-02-21T01:51:59;98732.19;;;4.25;83.19
7268;BME280;3675;43.276;27.962;2024-02-21T01:54:44;98734.69;;;4.30;82.89
7268;BME280;3675;43.276;27.962;2024-02-21T01:57:25;98733.97;;;4.19;83.99
7268;BME280;3675;43.276;27.962;2024-02-21T02:00:07;98724.66;;;4.10;84.69
7268;BME280;3675;43.276;27.962;2024-02-21T02:02:53;98745.09;;;4.15;84.71
7268;BME280;3675;43.276;27.962;2024-02-21T02:05:37;98738.22;;;4.17;84.72
7268;BME280;3675;43.276;27.962;2024-02-21T02:08:21;98747.63;;;4.16;84.79
7268;BME280;3675;43.276;27.962;2024-02-21T02:11:07;98740.75;;;4.21;84.33
7268;BME280;3675;43.276;27.962;2024-02-21T02:13:49;98741.59;;;4.23;84.44
7268;BME280;3675;43.276;27.962;2024-02-21T02:16:25;98745.06;;;4.18;84.70
7268;BME280;3675;43.276;27.962;2024-02-21T02:19:14;98734.78;;;4.21;84.62
7268;BME280;3675;43.276;27.962;2024-02-21T02:22:00;98743.34;;;4.17;84.23
7268;BME280;3675;43.276;27.962;2024-02-21T02:24:59;98737.28;;;4.28;83.91
7268;BME280;3675;43.276;27.962;2024-02-21T02:27:46;98737.25;;;4.30;83.59
7268;BME280;3675;43.276;27.962;2024-02-21T02:30:40;98736.34;;;4.35;83.29
7268;BME280;3675;43.276;27.962;2024-02-21T02:33:17;98738.00;;;4.41;82.87
7268;BME280;3675;43.276;27.962;2024-02-21T02:35:50;98740.53;;;4.44;82.79
7268;BME280;3675;43.276;27.962;2024-02-21T02:38:22;98735.38;;;4.47;82.43
7268;BME280;3675;43.276;27.962;2024-02-21T02:40:57;98739.69;;;4.45;82.63
7268;BME280;3675;43.276;27.962;2024-02-21T02:43:29;98734.50;;;4.48;82.14
7268;BME280;3675;43.276;27.962;2024-02-21T02:46:02;98741.34;;;4.47;82.60
7268;BME280;3675;43.276;27.962;2024-02-21T02:48:36;98739.59;;;4.54;82.10
7268;BME280;3675;43.276;27.962;2024-02-21T02:51:11;98742.13;;;4.54;81.88
7268;BME280;3675;43.276;27.962;2024-02-21T02:53:45;98742.09;;;4.57;81.75
7268;BME280;3675;43.276;27.962;2024-02-21T02:56:22;98748.06;;;4.59;81.38
7268;BME280;3675;43.276;27.962;2024-02-21T02:58:57;98743.75;;;4.64;80.97
7268;BME280;3675;43.276;27.962;2024-02-21T03:01:29;98743.72;;;4.66;81.18
7268;BME280;3675;43.276;27.962;2024-02-21T03:04:04;98742.13;;;4.56;81.87
7268;BME280;3675;43.276;27.962;2024-02-21T03:06:37;98738.91;;;4.34;82.41
7268;BME280;3675;43.276;27.962;2024-02-21T03:09:18;98736.34;;;4.34;82.94
7268;BME280;3675;43.276;27.962;2024-02-21T03:12:03;98742.22;;;4.46;81.93
7268;BME280;3675;43.276;27.962;2024-02-21T03:14:43;98741.28;;;4.52;81.55
7268;BME280;3675;43.276;27.962;2024-02-21T03:17:19;98742.94;;;4.56;81.29
7268;BME280;3675;43.276;27.962;2024-02-21T03:20:09;98740.38;;;4.58;81.42
7268;BME280;3675;43.276;27.962;2024-02-21T03:23:02;98742.09;;;4.60;81.76
7268;BME280;3675;43.276;27.962;2024-02-21T03:25:44;98741.25;;;4.58;81.50
7268;BME280;3675;43.276;27.962;2024-02-21T03:28:28;98741.19;;;4.63;81.47
7268;BME280;3675;43.276;27.962;2024-02-21T03:31:10;98742.19;;;4.49;81.81
7268;BME280;3675;43.276;27.962;2024-02-21T03:33:54;98743.84;;;4.52;81.88
7268;BME280;3675;43.276;27.962;2024-02-21T03:36:38;98743.91;;;4.49;82.07
7268;BME280;3675;43.276;27.962;2024-02-21T03:39:19;98745.53;;;4.56;81.37
7268;BME280;3675;43.276;27.962;2024-02-21T03:41:55;98754.06;;;4.57;81.74
7268;BME280;3675;43.276;27.962;2024-02-21T03:44:33;98752.34;;;4.60;81.41
7268;BME280;3675;43.276;27.962;2024-02-21T03:47:13;98748.88;;;4.64;81.63
7268;BME280;3675;43.276;27.962;2024-02-21T03:49:45;98753.16;;;4.62;81.79
7268;BME280;3675;43.276;27.962;2024-02-21T03:52:16;98747.22;;;4.60;81.78
7268;BME280;3675;43.276;27.962;2024-02-21T03:54:53;98740.28;;;4.65;80.94
7268;BME280;3675;43.276;27.962;2024-02-21T03:57:43;98736.03;;;4.66;81.06
7268;BME280;3675;43.276;27.962;2024-02-21T04:03:33;98741.03;;;4.76;80.57
7268;BME280;3675;43.276;27.962;2024-02-21T04:06:16;98740.19;;;4.77;80.63
7268;BME280;3675;43.276;27.962;2024-02-21T04:08:51;98741.84;;;4.80;80.78
7268;BME280;3675;43.276;27.962;2024-02-21T04:11:23;98736.72;;;4.80;80.93
7268;BME280;3675;43.276;27.962;2024-02-21T04:13:55;98748.69;;;4.81;80.55
7268;BME280;3675;43.276;27.962;2024-02-21T04:16:34;98741.84;;;4.81;80.86
7268;BME280;3675;43.276;27.962;2024-02-21T04:19:35;98741.81;;;4.83;80.08
7268;BME280;3675;43.276;27.962;2024-02-21T04:22:18;98741.78;;;4.86;80.46
7268;BME280;3675;43.276;27.962;2024-02-21T04:25:06;98742.63;;;4.86;80.30
7268;BME280;3675;43.276;27.962;2024-02-21T04:27:51;98737.50;;;4.86;80.00
7268;BME280;3675;43.276;27.962;2024-02-21T04:30:39;98730.66;;;4.87;79.70
7268;BME280;3675;43.276;27.962;2024-02-21T04:33:34;98734.91;;;4.89;79.80
7268;BME280;3675;43.276;27.962;2024-02-21T04:36:13;98732.34;;;4.89;79.96
7268;BME280;3675;43.276;27.962;2024-02-21T04:39:04;98722.09;;;4.89;79.91
7268;BME280;3675;43.276;27.962;2024-02-21T04:41:51;98729.78;;;4.88;79.94
7268;BME280;3675;43.276;27.962;2024-02-21T04:44:39;98742.59;;;4.89;80.35
7268;BME280;3675;43.276;27.962;2024-02-21T04:47:24;98748.81;;;4.69;81.16
7268;BME280;3675;43.276;27.962;2024-02-21T04:50:08;98746.31;;;4.64;81.21
7268;BME280;3675;43.276;27.962;2024-02-21T04:52:45;98753.16;;;4.61;81.10
7268;BME280;3675;43.276;27.962;2024-02-21T04:55:36;98748.06;;;4.59;81.07
7268;BME280;3675;43.276;27.962;2024-02-21T05:01:44;98752.28;;;4.62;81.33
7268;BME280;3675;43.276;27.962;2024-02-21T05:04:34;98747.13;;;4.65;80.85
7268;BME280;3675;43.276;27.962;2024-02-21T05:07:17;98753.09;;;4.68;80.85
7268;BME280;3675;43.276;27.962;2024-02-21T05:09:56;98753.09;;;4.67;80.83
7268;BME280;3675;43.276;27.962;2024-02-21T05:12:31;98750.53;;;4.65;81.24
7268;BME280;3675;43.276;27.962;2024-02-21T05:15:08;98752.38;;;4.54;81.71
7268;BME280;3675;43.276;27.962;2024-02-21T05:17:47;98755.72;;;4.61;81.41
7268;BME280;3675;43.276;27.962;2024-02-21T05:20:23;98760.84;;;4.61;81.24
7268;BME280;3675;43.276;27.962;2024-02-21T05:23:07;98768.47;;;4.65;80.95
7268;BME280;3675;43.276;27.962;2024-02-21T05:25:46;98770.13;;;4.69;80.84
7268;BME280;3675;43.276;27.962;2024-02-21T05:28:24;98773.59;;;4.68;80.84
7268;BME280;3675;43.276;27.962;2024-02-21T05:31:03;98775.28;;;4.68;81.26
7268;BME280;3675;43.276;27.962;2024-02-21T05:33:46;98777.84;;;4.66;81.58
7268;BME280;3675;43.276;27.962;2024-02-21T05:36:25;98779.56;;;4.69;81.26
7268;BME280;3675;43.276;27.962;2024-02-21T05:39:06;98788.06;;;4.72;81.14
7268;BME280;3675;43.276;27.962;2024-02-21T05:41:41;98792.28;;;4.76;81.24
7268;BME280;3675;43.276;27.962;2024-02-21T05:44:21;98793.13;;;4.77;80.91
7268;BME280;3675;43.276;27.962;2024-02-21T05:47:10;98790.53;;;4.80;81.20
7268;BME280;3675;43.276;27.962;2024-02-21T05:50:06;98795.66;;;4.81;81.19
7268;BME280;3675;43.276;27.962;2024-02-21T05:56:18;98798.16;;;4.86;80.75
7268;BME280;3675;43.276;27.962;2024-02-21T05:59:24;98797.31;;;4.82;81.13
7268;BME280;3675;43.276;27.962;2024-02-21T06:02:03;98800.72;;;4.84;80.96
7268;BME280;3675;43.276;27.962;2024-02-21T06:04:41;98806.66;;;4.88;80.36
7268;BME280;3675;43.276;27.962;2024-02-21T06:07:24;98804.91;;;4.93;80.44
7268;BME280;3675;43.276;27.962;2024-02-21T06:10:07;98810.03;;;4.93;80.63
7268;BME280;3675;43.276;27.962;2024-02-21T06:13:10;98803.25;;;4.89;79.94
7268;BME280;3675;43.276;27.962;2024-02-21T06:16:12;98819.31;;;5.00;79.92
7268;BME280;3675;43.276;27.962;2024-02-21T06:18:58;98818.41;;;5.06;80.04
7268;BME280;3675;43.276;27.962;2024-02-21T06:21:45;98811.59;;;5.06;80.21
7268;BME280;3675;43.276;27.962;2024-02-21T06:24:28;98817.56;;;5.08;80.18
7268;BME280;3675;43.276;27.962;2024-02-21T06:27:33;98813.34;;;5.01;80.18
7268;BME280;3675;43.276;27.962;2024-02-21T06:30:33;98816.66;;;5.11;80.71
7268;BME280;3675;43.276;27.962;2024-02-21T06:33:08;98811.53;;;5.12;80.94
7268;BME280;3675;43.276;27.962;2024-02-21T06:35:43;98813.19;;;5.16;80.98
7268;BME280;3675;43.276;27.962;2024-02-21T06:38:20;98814.88;;;5.17;81.34
7268;BME280;3675;43.276;27.962;2024-02-21T06:43:44;98806.22;;;5.26;80.86
7268;BME280;3675;43.276;27.962;2024-02-21T06:46:29;98804.38;;;5.37;80.91
7268;BME280;3675;43.276;27.962;2024-02-21T06:49:03;98800.16;;;5.33;80.35
7268;BME280;3675;43.276;27.962;2024-02-21T06:51:48;98796.78;;;5.28;80.22
7268;BME280;3675;43.276;27.962;2024-02-21T06:54:20;98798.44;;;5.33;80.53
7268;BME280;3675;43.276;27.962;2024-02-21T06:57:06;98794.09;;;5.38;80.31
7268;BME280;3675;43.276;27.962;2024-02-21T06:59:58;98796.41;;;5.57;80.30
7268;BME280;3675;43.276;27.962;2024-02-21T07:02:45;98797.91;;;5.71;81.02
7268;BME280;3675;43.276;27.962;2024-02-21T07:05:23;98795.19;;;5.82;80.49
7268;BME280;3675;43.276;27.962;2024-02-21T07:08:08;98798.50;;;5.90;80.75
7268;BME280;3675;43.276;27.962;2024-02-21T07:10:59;98800.72;;;6.13;79.63
7268;BME280;3675;43.276;27.962;2024-02-21T07:14:06;98799.69;;;6.24;78.14
7268;BME280;3675;43.276;27.962;2024-02-21T07:16:59;98801.13;;;6.41;78.22
7268;BME280;3675;43.276;27.962;2024-02-21T07:19:55;98799.44;;;6.40;75.79
7268;BME280;3675;43.276;27.962;2024-02-21T07:22:39;98793.19;;;6.54;75.05
7268;BME280;3675;43.276;27.962;2024-02-21T07:25:34;98786.28;;;6.56;76.57
7268;BME280;3675;43.276;27.962;2024-02-21T07:28:25;98800.16;;;6.48;74.98
7268;BME280;3675;43.276;27.962;2024-02-21T07:31:15;98801.75;;;6.55;75.95
7268;BME280;3675;43.276;27.962;2024-02-21T07:33:55;98803.47;;;6.54;75.08
7268;BME280;3675;43.276;27.962;2024-02-21T07:36:47;98802.22;;;6.75;75.43
7268;BME280;3675;43.276;27.962;2024-02-21T07:39:28;98807.97;;;6.88;75.55
7268;BME280;3675;43.276;27.962;2024-02-21T07:42:12;98800.78;;;7.05;75.55
7268;BME280;3675;43.276;27.962;2024-02-21T07:45:04;98804.63;;;7.27;72.92
7268;BME280;3675;43.276;27.962;2024-02-21T07:48:14;98807.16;;;7.30;73.28
7268;BME280;3675;43.276;27.962;2024-02-21T07:51:06;98803.41;;;7.45;74.18
7268;BME280;3675;43.276;27.962;2024-02-21T07:53:50;98809.09;;;7.59;73.04
7268;BME280;3675;43.276;27.962;2024-02-21T07:56:59;98809.84;;;7.64;71.90
7268;BME280;3675;43.276;27.962;2024-02-21T07:59:34;98818.22;;;7.74;72.69
7268;BME280;3675;43.276;27.962;2024-02-21T08:02:30;98819.09;;;7.73;72.35
7268;BME280;3675;43.276;27.962;2024-02-21T08:05:26;98816.00;;;7.57;71.77
7268;BME280;3675;43.276;27.962;2024-02-21T08:08:21;98812.50;;;7.61;71.65
7268;BME280;3675;43.276;27.962;2024-02-21T08:11:08;98817.31;;;7.76;72.20
7268;BME280;3675;43.276;27.962;2024-02-21T08:14:02;98814.53;;;7.84;72.13
7268;BME280;3675;43.276;27.962;2024-02-21T08:17:05;98797.44;;;7.83;71.87
7268;BME280;3675;43.276;27.962;2024-02-21T08:19:47;98807.22;;;8.04;70.10
7268;BME280;3675;43.276;27.962;2024-02-21T08:22:48;98803.69;;;8.08;71.22
7268;BME280;3675;43.276;27.962;2024-02-21T08:26:13;98806.75;;;8.24;72.21
7268;BME280;3675;43.276;27.962;2024-02-21T08:28:54;98798.81;;;8.33;69.97
7268;BME280;3675;43.276;27.962;2024-02-21T08:31:28;98800.19;;;8.47;69.01
7268;BME280;3675;43.276;27.962;2024-02-21T08:34:04;98799.63;;;8.69;68.63
7268;BME280;3675;43.276;27.962;2024-02-21T08:36:38;98795.59;;;8.91;68.12
7268;BME280;3675;43.276;27.962;2024-02-21T08:39:15;98799.16;;;9.16;66.91
7268;BME280;3675;43.276;27.962;2024-02-21T08:41:51;98798.53;;;9.08;65.43
7268;BME280;3675;43.276;27.962;2024-02-21T08:44:25;98800.88;;;9.17;68.21
7268;BME280;3675;43.276;27.962;2024-02-21T08:47:01;98803.66;;;9.40;68.16
7268;BME280;3675;43.276;27.962;2024-02-21T08:49:57;98802.78;;;9.69;66.00
7268;BME280;3675;43.276;27.962;2024-02-21T08:53:05;98802.56;;;9.77;64.47
7268;BME280;3675;43.276;27.962;2024-02-21T08:55:39;98807.81;;;9.74;64.66
7268;BME280;3675;43.276;27.962;2024-02-21T08:58:26;98799.66;;;9.60;64.90
7268;BME280;3675;43.276;27.962;2024-02-21T09:01:14;98806.00;;;9.19;66.85
7268;BME280;3675;43.276;27.962;2024-02-21T09:03:55;98808.56;;;9.20;67.52
7268;BME280;3675;43.276;27.962;2024-02-21T09:06:40;98800.63;;;9.26;67.59
7268;BME280;3675;43.276;27.962;2024-02-21T09:09:24;98800.03;;;9.17;66.63
7268;BME280;3675;43.276;27.962;2024-02-21T09:12:08;98807.59;;;9.23;67.07
7268;BME280;3675;43.276;27.962;2024-02-21T09:14:54;98810.09;;;9.26;67.84
7268;BME280;3675;43.276;27.962;2024-02-21T09:17:47;98809.16;;;9.28;66.88
7268;BME280;3675;43.276;27.962;2024-02-21T09:20:56;98802.94;;;9.35;65.28
7268;BME280;3675;43.276;27.962;2024-02-21T09:23:49;98791.97;;;9.29;64.56
7268;BME280;3675;43.276;27.962;2024-02-21T09:26:51;98799.38;;;9.39;64.32
7268;BME280;3675;43.276;27.962;2024-02-21T09:29:38;98804.41;;;9.44;63.85
7268;BME280;3675;43.276;27.962;2024-02-21T09:32:38;98797.50;;;9.44;64.34
7268;BME280;3675;43.276;27.962;2024-02-21T09:35:29;98797.81;;;9.63;63.05
7268;BME280;3675;43.276;27.962;2024-02-21T09:38:20;98800.66;;;10.10;62.53
7268;BME280;3675;43.276;27.962;2024-02-21T09:41:25;98801.22;;;10.21;61.10
7268;BME280;3675;43.276;27.962;2024-02-21T09:44:37;98804.69;;;10.20;60.89
7268;BME280;3675;43.276;27.962;2024-02-21T09:47:24;98799.78;;;10.11;61.93
7268;BME280;3675;43.276;27.962;2024-02-21T09:50:29;98792.44;;;9.97;62.56
7268;BME280;3675;43.276;27.962;2024-02-21T09:53:17;98798.84;;;9.85;62.80
7268;BME280;3675;43.276;27.962;2024-02-21T09:55:58;98799.09;;;9.78;62.90
7268;BME280;3675;43.276;27.962;2024-02-21T09:58:38;98794.13;;;9.72;62.74
7268;BME280;3675;43.276;27.962;2024-02-21T10:01:16;98788.34;;;9.64;62.77
7268;BME280;3675;43.276;27.962;2024-02-21T10:04:14;98791.00;;;9.61;63.41
7268;BME280;3675;43.276;27.962;2024-02-21T10:06:59;98788.50;;;9.58;64.46
7268;BME280;3675;43.276;27.962;2024-02-21T10:10:00;98784.19;;;9.58;62.36
7268;BME280;3675;43.276;27.962;2024-02-21T10:12:33;98787.00;;;9.51;63.44
7268;BME280;3675;43.276;27.962;2024-02-21T10:15:08;98785.31;;;9.50;63.80
7268;BME280;3675;43.276;27.962;2024-02-21T10:17:39;98779.56;;;9.40;64.25
7268;BME280;3675;43.276;27.962;2024-02-21T10:20:15;98780.41;;;9.40;64.64
7268;BME280;3675;43.276;27.962;2024-02-21T10:23:00;98772.97;;;9.30;65.30
7268;BME280;3675;43.276;27.962;2024-02-21T10:25:41;98769.53;;;9.29;65.97
7268;BME280;3675;43.276;27.962;2024-02-21T10:28:34;98770.31;;;9.33;65.65
7268;BME280;3675;43.276;27.962;2024-02-21T10:31:27;98771.59;;;9.18;66.10
7268;BME280;3675;43.276;27.962;2024-02-21T10:34:23;98756.38;;;9.09;66.89
7268;BME280;3675;43.276;27.962;2024-02-21T10:37:25;98759.56;;;8.88;67.17
7268;BME280;3675;43.276;27.962;2024-02-21T10:40:20;98755.63;;;8.75;67.03
7268;BME280;3675;43.276;27.962;2024-02-21T10:43:14;98758.44;;;8.67;67.99
7268;BME280;3675;43.276;27.962;2024-02-21T10:46:03;98747.22;;;8.36;68.25
7268;BME280;3675;43.276;27.962;2024-02-21T10:49:10;98751.19;;;8.13;68.99
7268;BME280;3675;43.276;27.962;2024-02-21T10:52:09;98752.53;;;7.93;69.80
7268;BME280;3675;43.276;27.962;2024-02-21T10:54:55;98750.16;;;7.85;70.00
7268;BME280;3675;43.276;27.962;2024-02-21T10:57:40;98749.38;;;7.83;70.59
7268;BME280;3675;43.276;27.962;2024-02-21T11:00:21;98756.50;;;7.71;70.40
7268;BME280;3675;43.276;27.962;2024-02-21T11:03:04;98757.72;;;7.56;70.42
7268;BME280;3675;43.276;27.962;2024-02-21T11:05:59;98756.91;;;7.52;70.93
7268;BME280;3675;43.276;27.962;2024-02-21T11:09:05;98746.94;;;7.39;72.17
7268;BME280;3675;43.276;27.962;2024-02-21T11:11:44;98753.44;;;7.15;72.69
7268;BME280;3675;43.276;27.962;2024-02-21T11:14:27;98746.84;;;7.03;72.49
7268;BME280;3675;43.276;27.962;2024-02-21T11:17:20;98740.88;;;7.00;73.86
7268;BME280;3675;43.276;27.962;2024-02-21T11:20:02;98744.28;;;7.03;73.79
7268;BME280;3675;43.276;27.962;2024-02-21T11:23:09;98744.38;;;6.97;74.55
7268;BME280;3675;43.276;27.962;2024-02-21T11:26:07;98743.84;;;7.23;73.29
7268;BME280;3675;43.276;27.962;2024-02-21T11:28:58;98738.69;;;7.25;73.33
7268;BME280;3675;43.276;27.962;2024-02-21T11:34:58;98737.25;;;7.11;74.06
7268;BME280;3675;43.276;27.962;2024-02-21T11:37:39;98729.44;;;7.14;74.13
7268;BME280;3675;43.276;27.962;2024-02-21T11:40:20;98729.06;;;7.33;74.13
7268;BME280;3675;43.276;27.962;2024-02-21T11:43:01;98720.84;;;7.54;73.43
7268;BME280;3675;43.276;27.962;2024-02-21T11:45:40;98717.78;;;7.75;72.74
7268;BME280;3675;43.276;27.962;2024-02-21T11:48:24;98718.94;;;7.99;70.99
7268;BME280;3675;43.276;27.962;2024-02-21T11:51:00;98714.53;;;8.02;71.25
7268;BME280;3675;43.276;27.962;2024-02-21T11:53:43;98710.38;;;8.32;70.09
7268;BME280;3675;43.276;27.962;2024-02-21T11:56:42;98711.56;;;8.53;69.37
7268;BME280;3675;43.276;27.962;2024-02-21T11:59:17;98708.88;;;8.56;69.40
7268;BME280;3675;43.276;27.962;2024-02-21T12:01:54;98703.22;;;8.74;68.50
7268;BME280;3675;43.276;27.962;2024-02-21T12:04:33;98694.38;;;8.83;68.53
7268;BME280;3675;43.276;27.962;2024-02-21T12:07:26;98694.78;;;8.98;68.45
7268;BME280;3675;43.276;27.962;2024-02-21T12:10:31;98695.69;;;8.97;67.84
7268;BME280;3675;43.276;27.962;2024-02-21T12:13:57;98698.34;;;8.94;68.33
7268;BME280;3675;43.276;27.962;2024-02-21T12:16:39;98693.19;;;8.94;67.39
7268;BME280;3675;43.276;27.962;2024-02-21T12:19:39;98689.94;;;9.17;66.83
7268;BME280;3675;43.276;27.962;2024-02-21T12:22:20;98686.94;;;9.31;64.87
7268;BME280;3675;43.276;27.962;2024-02-21T12:25:22;98684.38;;;9.29;65.25
7268;BME280;3675;43.276;27.962;2024-02-21T12:28:10;98685.38;;;9.25;67.57
7268;BME280;3675;43.276;27.962;2024-02-21T12:30:59;98684.06;;;9.12;67.09
7268;BME280;3675;43.276;27.962;2024-02-21T12:37:31;98681.81;;;9.01;66.89
7268;BME280;3675;43.276;27.962;2024-02-21T12:40:10;98678.38;;;9.01;67.31
7268;BME280;3675;43.276;27.962;2024-02-21T12:42:44;98679.97;;;9.05;66.29
7268;BME280;3675;43.276;27.962;2024-02-21T12:45:21;98678.56;;;8.95;66.40
7268;BME280;3675;43.276;27.962;2024-02-21T12:47:59;98677.72;;;8.64;67.76
7268;BME280;3675;43.276;27.962;2024-02-21T12:50:43;98685.44;;;8.65;67.92
7268;BME280;3675;43.276;27.962;2024-02-21T12:53:33;98687.03;;;8.38;70.24
7268;BME280;3675;43.276;27.962;2024-02-21T12:56:13;98683.63;;;8.02;72.06
7268;BME280;3675;43.276;27.962;2024-02-21T12:58:57;98681.19;;;7.98;72.34
7268;BME280;3675;43.276;27.962;2024-02-21T13:01:35;98684.31;;;7.75;73.42
7268;BME280;3675;43.276;27.962;2024-02-21T13:04:11;98685.03;;;7.82;73.33
7268;BME280;3675;43.276;27.962;2024-02-21T13:06:44;98676.59;;;7.75;73.11
7268;BME280;3675;43.276;27.962;2024-02-21T13:09:47;98665.56;;;7.70;73.73
7268;BME280;3675;43.276;27.962;2024-02-21T13:12:25;98681.63;;;7.44;74.90
7268;BME280;3675;43.276;27.962;2024-02-21T13:15:25;98683.44;;;7.39;74.77
7268;BME280;3675;43.276;27.962;2024-02-21T13:18:26;98688.66;;;7.36;74.78
7268;BME280;3675;43.276;27.962;2024-02-21T13:21:33;98691.53;;;7.24;75.42
7268;BME280;3675;43.276;27.962;2024-02-21T13:24:25;98688.69;;;7.35;74.86
7268;BME280;3675;43.276;27.962;2024-02-21T13:27:12;98689.53;;;7.35;74.50
7268;BME280;3675;43.276;27.962;2024-02-21T13:30:13;98692.13;;;7.35;74.28
7268;BME280;3675;43.276;27.962;2024-02-21T13:32:58;98687.94;;;7.31;74.38
7268;BME280;3675;43.276;27.962;2024-02-21T13:35:35;98689.84;;;7.21;74.11
7268;BME280;3675;43.276;27.962;2024-02-21T13:38:15;98689.03;;;7.21;74.74
7268;BME280;3675;43.276;27.962;2024-02-21T13:40:53;98681.25;;;7.22;74.36
7268;BME280;3675;43.276;27.962;2024-02-21T13:43:32;98679.47;;;7.26;74.43
7268;BME280;3675;43.276;27.962;2024-02-21T13:46:16;98691.00;;;7.08;75.06
7268;BME280;3675;43.276;27.962;2024-02-21T13:48:51;98691.84;;;7.09;75.82
7268;BME280;3675;43.276;27.962;2024-02-21T13:51:29;98684.22;;;7.04;75.82
7268;BME280;3675;43.276;27.962;2024-02-21T13:54:38;98681.84;;;6.95;76.73
7268;BME280;3675;43.276;27.962;2024-02-21T13:57:34;98678.28;;;7.02;75.50
7268;BME280;3675;43.276;27.962;2024-02-21T14:00:20;98682.13;;;6.83;76.77
7268;BME280;3675;43.276;27.962;2024-02-21T14:03:02;98682.81;;;6.91;76.26
7268;BME280;3675;43.276;27.962;2024-02-21T14:05:51;98681.94;;;6.91;76.06
7268;BME280;3675;43.276;27.962;2024-02-21T14:08:37;98678.38;;;6.98;76.06
7268;BME280;3675;43.276;27.962;2024-02-21T14:11:59;98684.28;;;7.03;75.57
7268;BME280;3675;43.276;27.962;2024-02-21T14:14:53;98669.63;;;7.06;76.08
7268;BME280;3675;43.276;27.962;2024-02-21T14:18:02;98683.44;;;7.02;76.52
7268;BME280;3675;43.276;27.962;2024-02-21T14:21:04;98678.22;;;7.05;76.74
7268;BME280;3675;43.276;27.962;2024-02-21T14:23:46;98672.19;;;7.08;76.51
7268;BME280;3675;43.276;27.962;2024-02-21T14:29:21;98670.44;;;7.08;76.65
7268;BME280;3675;43.276;27.962;2024-02-21T14:32:19;98681.63;;;7.06;76.88
7268;BME280;3675;43.276;27.962;2024-02-21T14:35:02;98681.63;;;7.06;76.86
7268;BME280;3675;43.276;27.962;2024-02-21T14:37:41;98675.16;;;6.88;77.16
7268;BME280;3675;43.276;27.962;2024-02-21T14:40:18;98673.31;;;6.95;77.33
7268;BME280;3675;43.276;27.962;2024-02-21T14:42:53;98677.84;;;6.82;77.36
7268;BME280;3675;43.276;27.962;2024-02-21T14:45:28;98680.22;;;6.91;77.09
7268;BME280;3675;43.276;27.962;2024-02-21T14:48:05;98679.53;;;6.85;77.30
7268;BME280;3675;43.276;27.962;2024-02-21T14:50:42;98671.53;;;6.97;76.53
7268;BME280;3675;43.276;27.962;2024-02-21T14:53:36;98673.94;;;7.04;75.93
7268;BME280;3675;43.276;27.962;2024-02-21T14:56:18;98677.56;;;6.96;76.59
7268;BME280;3675;43.276;27.962;2024-02-21T14:59:05;98671.81;;;6.85;77.01
7268;BME280;3675;43.276;27.962;2024-02-21T15:01:52;98671.13;;;6.76;76.75
7268;BME280;3675;43.276;27.962;2024-02-21T15:04:29;98668.50;;;6.78;77.06
7268;BME280;3675;43.276;27.962;2024-02-21T15:07:11;98669.34;;;6.78;76.76
7268;BME280;3675;43.276;27.962;2024-02-21T15:09:43;98663.44;;;6.75;76.77
7268;BME280;3675;43.276;27.962;2024-02-21T15:12:17;98659.41;;;6.63;77.16
7268;BME280;3675;43.276;27.962;2024-02-21T15:15:01;98661.56;;;6.40;78.82
7268;BME280;3675;43.276;27.962;2024-02-21T15:17:53;98669.44;;;6.31;79.05
7268;BME280;3675;43.276;27.962;2024-02-21T15:20:40;98672.00;;;6.32;78.13
7268;BME280;3675;43.276;27.962;2024-02-21T15:23:18;98679.78;;;6.28;78.19